Detall de PIREP

Printer-friendly versionPDF version

[2013/12/29 10:44:00]
Flight IATA:CT1004
Pilot Number:012
Company ICAO:CAT
Aircraft Type:F70/A
PAX:79
Aircraft Registration:PFJ
Departing Airport: LEXJ
Destination Airport: LEGE
Alternate Airport:LEPA
Online: VATSIM
Route:BLV G23 REBUL H110 MAMUK
Flight Level:F240
No Slew and time accel
No pause
Crash detect
Detect pilot in Cockpit between each 30 and 45 minutes
10:44 Zero fuel Weight: 71284 Lbs, Fuel Weight: 10011 Lbs
10:44 VATSIM:LEXJ 291030Z 17001KT 9999 FEW020 BKN038TCU 08/07 Q1028 RESHRA
10:44 VATSIM:LEGE 291030Z 00000KT 9999 SCT034 08/05 Q1024
10:44 VOICE CATALONIAN / XMAS CHARTER
10:46 Parking Brakes off
10:51 Take-off
10:51 Take off Weight: 80955 Lbs
10:51 Wind: 171º @ 001 Knots Heading: 289º
10:51 POS N43º 25´ 46´´ W003º 49´ 46´´
10:51 Gear Up: 147 Knots
10:51 Flaps:2 at 147 Knots
10:52 Flaps:1 at 165 Knots
10:52 Flaps:0 at 167 Knots
11:04 TOC
11:04 Fuel Weight: 7921 Lb
11:06 Wind:334º@054 Knots Heading: 118º Ground Speed: 471 Knots Altitude 24419 ft
11:21 Wind:308º@028 Knots Heading: 116º Ground Speed: 456 Knots Altitude 24412 ft
11:31 TOD
11:31 Fuel Weight: 5280 Lb
11:36 Wind:247º@036 Knots Heading: 080º Ground Speed: 373 Knots Altitude 15295 ft
11:38 Flaps:1 at 230 Knots
11:44 Flaps:2 at 163 Knots
11:44 Gear Down: 165 Knots
11:45 Flaps:3 at 156 Knots
11:48 Flaps:4 at 147 Knots
11:49 TouchDown:Rate -113 ft/min Speed: 119 Knots
11:50 Flaps:0 at 72 Knots
11:50 VATSIM:LEGE 291130Z 06003KT 9999 FEW034 11/03 Q1024
11:50 Land
11:50 Wind:359º@002 Knots
11:50 Heading: 196º
11:50 Flight Duration: 00:59
11:50 Landing Weight: 75724 Lbs
11:50 POS N41º 54´ 03´´ E002º 45´ 37´´
11:53 Parking brakes on
11:53 Block to Block Duration: 01:07
11:53 Final Fuel: 4351 Lbls
11:53 Spent Fuel: 5659 Lbls
11:53 Flight Length: 362 NM
11:53 TOD Land Length: 81 NM

Exportar CSV

Powered by Drupal - Modified by Danger4k